Data for 01/16/2015

Time Sea-Level Adjusted Pressure Absolute Pressure Temperature Relative Humidity Dew Point   
(mb) (inHg) (mb) (inHg) (C) (F) (%) (C) (F)
00:05 1019 30.09 848 25.04 -0 32 42 -11.6 11.1
00:10 1019 30.09 848 25.04 0.4 32.7 39 -12 10.4
00:15 1019 30.09 848 25.04 0.4 32.8 40 -11.5 11.3
00:20 1019 30.09 848 25.04 0.3 32.6 40 -11.8 10.7
00:25 1019 30.09 848 25.04 0.3 32.6 41 -11.5 11.2
00:30 1019 30.09 848 25.04 0.3 32.6 41 -11.6 11.1
00:35 1019 30.09 848 25.04 0.3 32.5 41 -11.5 11.3
00:40 1019 30.09 848 25.04 -0 32 44 -11 12.2
00:45 1019 30.09 848 25.04 -0.9 30.4 47 -10.9 12.3
00:50 1019 30.09 848 25.04 -1.3 29.6 46 -11.4 11.4
00:55 1018 30.06 848 25.04 -1.1 30 46 -11.2 11.8
01:00 1018 30.06 848 25.04 -1.1 30 45 -11.6 11.2
01:05 1018 30.06 848 25.04 -1.2 29.8 48 -10.9 12.3
01:10 1018 30.06 847 25.01 -1 30.1 45 -11.5 11.3
01:15 1018 30.06 847 25.01 -0.7 30.8 45 -11.3 11.6
01:20 1018 30.06 847 25.01 -0.5 31 43 -11.7 10.9
01:25 1018 30.06 847 25.01 0.3 32.6 39 -12.2 10
01:30 1018 30.06 847 25.01 1 33.7 38 -11.8 10.7
01:35 1018 30.06 847 25.01 0.4 32.7 42 -11.1 11.9
01:40 1018 30.06 847 25.01 0 32.1 40 -12.1 10.2
01:45 1017 30.03 847 25.01 0.2 32.4 44 -10.7 12.8
01:50 1017 30.03 847 25.01 -0.6 31 46 -10.7 12.7
01:55 1017 30.03 847 25.01 -0.8 30.6 43 -11.8 10.7
02:00 1017 30.03 847 25.01 0.3 32.6 40 -11.7 11
02:05 1017 30.03 847 25.01 0.8 33.5 40 -11.2 11.8
02:10 1017 30.03 847 25.01 0.7 33.3 41 -11.2 11.8
02:15 1017 30.03 846 24.98 0.6 33.1 42 -10.9 12.3
02:20 1017 30.03 846 24.98 0.8 33.4 40 -11.3 11.6
02:25 1017 30.03 846 24.98 0.4 32.8 42 -11.2 11.9
02:30 1017 30.03 846 24.98 0.8 33.4 42 -10.7 12.8
02:35 1017 30.03 846 24.98 0.6 33.1 41 -11.3 11.7
02:40 1017 30.03 846 24.98 0.5 32.9 40 -11.6 11.1
02:45 1017 30.03 846 24.98 0.5 32.9 42 -11 12.2
02:50 1017 30.03 846 24.98 0.3 32.5 43 -11 12.3
02:55 1017 30.03 846 24.98 -0 32 45 -10.6 12.9
03:00 1017 30.03 846 24.98 -0.3 31.4 45 -11 12.3
03:05 1017 30.03 846 24.98 -0.2 31.7 45 -10.8 12.5
03:10 1017 30.03 846 24.98 -0.2 31.6 43 -11.3 11.7
03:15 1017 30.03 846 24.98 0.2 32.3 41 -11.7 11
03:20 1017 30.03 846 24.98 0.8 33.4 36 -12.7 9.2
03:25 1017 30.03 846 24.98 1.4 34.5 39 -11.1 12
03:30 1017 30.03 846 24.98 0.3 32.6 45 -10.2 13.7
03:35 1017 30.03 846 24.98 -0.1 31.9 43 -11.1 12.1
03:40 1017 30.03 846 24.98 0.4 32.8 40 -11.7 11
03:45 1016 30 846 24.98 0.9 33.6 38 -11.8 10.8
03:50 1016 30 846 24.98 0.4 32.8 48 -9.4 15.1
03:55 1016 30 846 24.98 -0.4 31.3 44 -11.2 11.8
04:00 1016 30 845 24.95 -0.1 31.8 46 -10.3 13.4
04:05 1016 30 845 24.95 -0.2 31.7 45 -10.8 12.5
04:10 1016 30 845 24.95 -0 31.9 44 -10.9 12.3
04:15 1016 30 845 24.95 0.3 32.6 42 -11 12.2
04:20 1016 30 845 24.95 0.8 33.4 40 -11.3 11.6
04:25 1016 30 845 24.95 1.2 34.1 41 -10.8 12.6
04:30 1016 30 845 24.95 0.9 33.7 41 -11 12.3
04:35 1016 30 845 24.95 1.3 34.3 40 -10.8 12.5
04:40 1016 30 845 24.95 1.2 34.1 40 -11.2 11.9
04:45 1016 30 845 24.95 1.5 34.7 41 -10.5 13.2
04:50 1016 30 845 24.95 1.1 34 41 -10.7 12.8
04:55 1016 30 845 24.95 1.2 34.2 40 -11 12.3
05:00 1016 30 845 24.95 2 35.6 39 -10.6 12.9
05:05 1016 30 845 24.95 2.2 35.9 39 -10.4 13.2
05:10 1016 30 845 24.95 1.6 34.9 44 -9.5 14.9
05:15 1016 30 845 24.95 1.4 34.5 43 -9.9 14.2
05:20 1016 30 845 24.95 1.4 34.4 47 -8.7 16.3
05:25 1016 30 845 24.95 1.5 34.6 48 -8.5 16.7
05:30 1016 30 845 24.95 1.8 35.3 47 -8.5 16.7
05:35 1015 29.97 845 24.95 1.4 34.5 46 -8.9 16
05:40 1015 29.97 845 24.95 1.6 34.9 43 -9.8 14.4
05:45 1015 29.97 844 24.92 1.3 34.3 44 -9.8 14.4
05:50 1015 29.97 844 24.92 1.3 34.4 42 -10.3 13.5
05:55 1015 29.97 844 24.92 1.6 34.9 44 -9.5 14.9
06:00 1015 29.97 844 24.92 1.5 34.7 43 -9.7 14.6
06:05 1015 29.97 844 24.92 1.5 34.8 44 -9.4 15.1
06:10 1015 29.97 844 24.92 1.6 34.9 43 -9.6 14.7
06:15 1015 29.97 844 24.92 1.9 35.5 44 -9.1 15.7
06:20 1015 29.97 844 24.92 2 35.5 46 -8.6 16.6
06:25 1015 29.97 844 24.92 1.3 34.3 47 -8.7 16.3
06:30 1015 29.97 844 24.92 1.2 34.2 48 -8.7 16.3
06:35 1015 29.97 844 24.92 2.1 35.9 47 -8.1 17.5
06:40 1014 29.94 844 24.92 3.2 37.8 44 -7.7 18.1
06:45 1014 29.94 843 24.89 3.4 38.1 45 -7.5 18.4
06:50 1014 29.94 843 24.89 3.8 38.9 45 -7 19.4
06:55 1014 29.94 843 24.89 3.8 38.9 45 -7.1 19.2
07:00 1014 29.94 843 24.89 4.2 39.6 45 -6.8 19.8
07:05 1014 29.94 843 24.89 4.7 40.4 44 -6.6 20.1
07:10 1014 29.94 843 24.89 5.1 41.2 44 -6.1 21
07:15 1014 29.94 843 24.89 5 41.1 44 -6.2 20.8
07:20 1014 29.94 843 24.89 4.7 40.5 45 -6.2 20.8
07:25 1014 29.94 843 24.89 4.6 40.3 46 -6.1 21
07:30 1014 29.94 843 24.89 4.8 40.6 45 -6.2 20.9
07:35 1014 29.94 843 24.89 5.1 41.1 45 -6 21.2
07:40 1014 29.94 843 24.89 5.2 41.3 44 -6.1 21.1
07:45 1014 29.94 843 24.89 4.8 40.7 44 -6.3 20.7
07:50 1014 29.94 843 24.89 4.7 40.4 44 -6.5 20.2
07:55 1014 29.94 843 24.89 5.2 41.4 43 -6.5 20.3
08:00 1014 29.94 843 24.89 5.5 41.9 42 -6.3 20.7
08:05 1014 29.94 843 24.89 5.8 42.5 41 -6.4 20.6
08:10 1013 29.91 843 24.89 5.7 42.3 42 -6.3 20.7
08:15 1013 29.91 842 24.86 4.9 40.9 45 -6.1 21
08:20 1013 29.91 843 24.89 4.1 39.4 49 -5.7 21.7
08:25 1013 29.91 842 24.86 3.7 38.7 48 -6.2 20.8
08:30 1013 29.91 842 24.86 4.3 39.8 46 -6.3 20.6
08:35 1013 29.91 842 24.86 4.3 39.8 47 -5.9 21.4
08:40 1013 29.91 842 24.86 4.4 40 47 -5.8 21.6
08:45 1013 29.91 842 24.86 4.3 39.8 48 -5.8 21.6
08:50 1013 29.91 842 24.86 4.7 40.5 45 -6.4 20.5
08:55 1013 29.91 842 24.86 5.5 41.9 45 -5.4 22.3
09:00 1013 29.91 842 24.86 5.1 41.2 49 -4.8 23.4
09:05 1013 29.91 842 24.86 4.3 39.8 52 -4.7 23.6
09:10 1013 29.91 842 24.86 3.4 38.1 55 -4.7 23.6
09:15 1013 29.91 842 24.86 2.3 36.2 58 -5 23.1
09:20 1013 29.91 842 24.86 2.2 36 58 -5.2 22.7
09:25 1013 29.91 842 24.86 2.4 36.3 58 -5 22.9
09:30 1013 29.91 842 24.86 2.2 35.9 59 -5 23.1
09:35 1013 29.91 842 24.86 3.9 39.1 46 -6.8 19.7
09:40 1013 29.91 842 24.86 5.9 42.5 43 -5.9 21.4
09:45 1013 29.91 842 24.86 6.4 43.5 41 -5.8 21.5
09:50 1012 29.88 842 24.86 6.3 43.3 43 -5.4 22.3
09:55 1012 29.88 842 24.86 6 42.8 45 -5.2 22.7
10:00 1012 29.88 842 24.86 5.9 42.6 44 -5.3 22.5
10:05 1012 29.88 842 24.86 5.9 42.6 45 -5.1 22.7
10:10 1012 29.88 842 24.86 6 42.8 44 -5.5 22.2
10:15 1012 29.88 842 24.86 6.2 43.1 45 -5 23
10:20 1012 29.88 842 24.86 6.1 42.9 45 -5.1 22.8
10:25 1012 29.88 842 24.86 6 42.9 45 -5 23
10:30 1012 29.88 842 24.86 6 42.8 47 -4.6 23.7
10:35 1012 29.88 842 24.86 5.8 42.4 47 -4.5 23.8
10:40 1012 29.88 842 24.86 5.6 42 48 -4.7 23.6
10:45 1012 29.88 841 24.83 5.6 42 47 -4.8 23.4
10:50 1012 29.88 841 24.83 5.8 42.5 47 -4.6 23.7
10:55 1012 29.88 841 24.83 5.9 42.6 47 -4.7 23.6
11:00 1012 29.88 841 24.83 5.9 42.7 46 -4.7 23.6
11:05 1012 29.88 841 24.83 6 42.9 44 -5.2 22.6
11:10 1012 29.88 841 24.83 6.3 43.3 44 -5.2 22.6
11:15 1012 29.88 841 24.83 6.4 43.5 43 -5.3 22.4
11:20 1012 29.88 841 24.83 6.4 43.6 42 -5.7 21.8
11:25 1012 29.88 841 24.83 6.5 43.7 42 -5.4 22.3
11:30 1012 29.88 841 24.83 6.4 43.5 42 -5.7 21.7
11:35 1012 29.88 841 24.83 6.4 43.4 42 -5.5 22.1
11:40 1012 29.88 842 24.86 6.4 43.6 42 -5.4 22.2
11:45 1012 29.88 842 24.86 6.4 43.4 42 -5.5 22.1
11:50 1013 29.91 842 24.86 6.5 43.6 42 -5.5 22.2
11:55 1013 29.91 842 24.86 6.3 43.4 44 -4.9 23.2
12:00 1013 29.91 842 24.86 6 42.8 43 -5.6 22
12:05 1013 29.91 842 24.86 6 42.8 44 -5.4 22.3
12:10 1013 29.91 842 24.86 5.9 42.6 44 -5.4 22.2
12:15 1013 29.91 842 24.86 5.8 42.4 44 -5.5 22.1
12:20 1013 29.91 842 24.86 5.7 42.3 45 -5.1 22.7
12:25 1013 29.91 842 24.86 5.6 42 48 -4.7 23.6
12:30 1013 29.91 842 24.86 5.7 42.2 44 -5.7 21.7
12:35 1013 29.91 842 24.86 5.8 42.4 46 -4.9 23.2
12:40 1013 29.91 842 24.86 5.4 41.6 48 -4.6 23.6
12:45 1013 29.91 842 24.86 5.2 41.3 48 -5 23
12:50 1012 29.88 842 24.86 5.1 41.2 49 -4.6 23.7
12:55 1012 29.88 842 24.86 5.2 41.4 49 -4.7 23.6
13:00 1012 29.88 842 24.86 5.2 41.4 51 -4.1 24.7
13:05 1012 29.88 842 24.86 5.2 41.4 51 -4.2 24.4
13:10 1012 29.88 841 24.83 5.3 41.5 51 -4.1 24.7
13:15 1012 29.88 841 24.83 5.3 41.5 51 -4 24.7
13:20 1012 29.88 841 24.83 5.2 41.3 51 -4.1 24.7
13:25 1012 29.88 841 24.83 5.4 41.6 50 -4.3 24.2
13:30 1012 29.88 841 24.83 5.5 41.8 49 -4.4 24.1
13:35 1012 29.88 841 24.83 5.6 42.1 49 -4.4 24.1
13:40 1012 29.88 841 24.83 5.6 42.2 49 -4.1 24.6
13:45 1012 29.88 841 24.83 5.6 42.1 50 -4 24.7
13:50 1012 29.88 841 24.83 5.6 42 51 -3.7 25.3
13:55 1012 29.88 841 24.83 5.5 41.8 51 -3.9 25
14:00 1012 29.88 841 24.83 5.5 42 51 -3.9 25
14:05 1012 29.88 841 24.83 5.5 41.9 52 -3.7 25.3
14:10 1012 29.88 841 24.83 5.3 41.5 53 -3.6 25.5
14:15 1012 29.88 841 24.83 5.2 41.3 53 -3.7 25.3
14:20 1012 29.88 841 24.83 5.2 41.3 53 -3.6 25.5
14:25 1012 29.88 841 24.83 5.2 41.4 53 -3.6 25.5
14:30 1012 29.88 841 24.83 5.2 41.3 54 -3.5 25.7
14:35 1012 29.88 841 24.83 5.2 41.3 53 -3.6 25.5
14:40 1012 29.88 841 24.83 5.2 41.3 54 -3.4 25.9
14:45 1012 29.88 841 24.83 5 41 55 -3.3 26.1
14:50 1012 29.88 841 24.83 5 41 55 -3.3 26
14:55 1012 29.88 841 24.83 5.1 41.2 53 -3.6 25.5
15:00 1012 29.88 841 24.83 5.2 41.4 53 -3.6 25.6
15:05 1012 29.88 841 24.83 5.2 41.4 53 -3.5 25.7
15:10 1012 29.88 841 24.83 5.3 41.5 52 -3.8 25.2
15:15 1012 29.88 841 24.83 5.5 41.8 52 -3.6 25.4
15:20 1012 29.88 841 24.83 5.4 41.8 52 -3.6 25.6
15:25 1012 29.88 841 24.83 5.4 41.7 52 -3.7 25.3
15:30 1012 29.88 841 24.83 5.4 41.7 53 -3.5 25.7
15:35 1012 29.88 841 24.83 5.2 41.4 54 -3.3 26
15:40 1012 29.88 841 24.83 5.2 41.3 53 -3.5 25.7
15:45 1012 29.88 841 24.83 5.1 41.3 54 -3.3 26
15:50 1012 29.88 841 24.83 5.1 41.1 53 -3.7 25.4
15:55 1012 29.88 841 24.83 5.2 41.3 54 -3.5 25.8
16:00 1012 29.88 842 24.86 5.2 41.3 54 -3.4 25.8
16:05 1012 29.88 842 24.86 5.2 41.4 54 -3.3 26
16:10 1012 29.88 842 24.86 5.2 41.4 53 -3.6 25.5
16:15 1013 29.91 842 24.86 5.4 41.6 52 -3.7 25.3
16:20 1013 29.91 842 24.86 5.5 41.8 52 -3.7 25.3
16:25 1013 29.91 842 24.86 5.6 42 50 -3.9 24.9
16:30 1013 29.91 842 24.86 5.6 42 51 -3.7 25.4
16:35 1013 29.91 842 24.86 5.5 41.8 50 -4 24.7
16:40 1013 29.91 842 24.86 5.5 41.9 50 -3.9 24.9
16:45 1013 29.91 842 24.86 5.7 42.2 49 -4.1 24.6
16:50 1013 29.91 842 24.86 6 42.7 49 -4 24.9
16:55 1013 29.91 842 24.86 5.9 42.6 49 -4 24.9
17:00 1013 29.91 842 24.86 5.9 42.6 48 -4.2 24.5
17:05 1013 29.91 842 24.86 6.1 42.9 47 -4.3 24.3
17:10 1013 29.91 842 24.86 6.1 43 47 -4.4 24.1
17:15 1013 29.91 842 24.86 6.1 43 48 -4.2 24.5
17:20 1013 29.91 842 24.86 6 42.9 48 -4.2 24.5
17:25 1013 29.91 842 24.86 5.9 42.6 48 -4.1 24.5
17:30 1013 29.91 842 24.86 5.8 42.4 48 -4.3 24.2
17:35 1013 29.91 842 24.86 5.6 42.1 50 -4 24.7
17:40 1013 29.91 842 24.86 5.2 41.4 51 -4.1 24.7
17:45 1013 29.91 842 24.86 5.1 41.1 52 -4 24.7
17:50 1013 29.91 842 24.86 5 40.9 51 -4.4 24.1
17:55 1013 29.91 842 24.86 4.9 40.8 51 -4.3 24.3
18:00 1013 29.91 842 24.86 4.8 40.7 51 -4.3 24.2
18:05 1013 29.91 842 24.86 4.8 40.7 51 -4.5 23.9
18:10 1013 29.91 842 24.86 4.8 40.7 51 -4.5 24
18:15 1013 29.91 843 24.89 4.8 40.7 52 -4.2 24.4
18:20 1013 29.91 843 24.89 4.7 40.4 54 -3.9 25
18:25 1013 29.91 843 24.89 4.5 40 56 -3.6 25.6
18:30 1014 29.94 843 24.89 4.3 39.8 57 -3.5 25.7
18:35 1014 29.94 843 24.89 4.3 39.7 57 -3.4 25.9
18:40 1014 29.94 843 24.89 4.2 39.5 58 -3.3 26.1
18:45 1014 29.94 843 24.89 4.1 39.3 59 -3.3 26.1
18:50 1014 29.94 843 24.89 4 39.3 59 -3.3 26.1
18:55 1014 29.94 843 24.89 4 39.1 59 -3.4 25.8
19:00 1014 29.94 843 24.89 3.9 39.1 58 -3.5 25.7
19:05 1014 29.94 844 24.92 3.9 39 59 -3.4 25.9
19:10 1014 29.94 844 24.92 3.8 38.8 58 -3.6 25.4
19:15 1014 29.94 844 24.92 3.7 38.6 59 -3.5 25.7
19:20 1014 29.94 844 24.92 3.6 38.5 60 -3.5 25.7
19:25 1014 29.94 844 24.92 3.6 38.5 58 -3.8 25.2
19:30 1014 29.94 844 24.92 3.6 38.4 60 -3.6 25.6
19:35 1014 29.94 844 24.92 3.4 38.2 59 -3.8 25.2
19:40 1015 29.97 844 24.92 3.5 38.3 57 -4.2 24.4
19:45 1015 29.97 844 24.92 3.5 38.3 55 -4.7 23.6
19:50 1015 29.97 844 24.92 3.6 38.4 53 -5.1 22.9
19:55 1015 29.97 844 24.92 3.5 38.4 52 -5.3 22.5
20:00 1015 29.97 844 24.92 3.5 38.2 53 -5.3 22.4
20:05 1015 29.97 844 24.92 3.3 37.9 54 -5.2 22.6
20:10 1015 29.97 844 24.92 3.2 37.8 53 -5.4 22.2
20:15 1015 29.97 844 24.92 3.3 38 49 -6.4 20.6
20:20 1015 29.97 844 24.92 3.5 38.4 46 -7.1 19.2
20:25 1015 29.97 844 24.92 3.7 38.6 47 -6.7 20
20:30 1015 29.97 844 24.92 3.6 38.5 48 -6.5 20.3
20:35 1015 29.97 844 24.92 3.4 38.1 48 -6.7 19.9
20:40 1015 29.97 845 24.95 3.2 37.8 49 -6.4 20.4
20:45 1015 29.97 845 24.95 3.1 37.7 48 -6.9 19.5
20:50 1016 30 845 24.95 3.3 38 48 -6.7 19.9
20:55 1016 30 845 24.95 3.3 37.9 48 -6.6 20.1
21:00 1016 30 845 24.95 3.2 37.7 49 -6.5 20.3
21:05 1016 30 845 24.95 3.1 37.6 50 -6.3 20.7
21:10 1016 30 846 24.98 3 37.4 51 -6.1 21
21:15 1016 30 846 24.98 3 37.3 49 -6.7 20
21:20 1017 30.03 846 24.98 3 37.5 48 -6.9 19.6
21:25 1017 30.03 846 24.98 3.1 37.6 47 -7.2 19
21:30 1017 30.03 846 24.98 3.2 37.8 47 -7 19.4
21:35 1017 30.03 846 24.98 3.3 37.9 46 -7.3 18.9
21:40 1017 30.03 847 25.01 3.3 38 46 -7.3 18.9
21:45 1018 30.06 847 25.01 3.1 37.6 51 -6.1 21.1
21:50 1018 30.06 847 25.01 2.8 37 53 -6 21.2
21:55 1018 30.06 847 25.01 2.6 36.7 53 -5.9 21.3
22:00 1018 30.06 847 25.01 2.5 36.5 54 -5.8 21.6
22:05 1018 30.06 847 25.01 2.4 36.3 54 -5.9 21.4
22:10 1018 30.06 847 25.01 2.4 36.3 53 -6.2 20.8
22:15 1018 30.06 847 25.01 2.4 36.2 53 -6.3 20.6
22:20 1018 30.06 848 25.04 2.3 36.1 52 -6.5 20.2
22:25 1018 30.06 848 25.04 2.3 36.1 51 -6.9 19.5
22:30 1018 30.06 847 25.01 2.4 36.3 49 -7.2 19.1
22:35 1018 30.06 847 25.01 2.3 36.2 51 -6.9 19.6
22:40 1018 30.06 847 25.01 2.1 35.8 51 -7 19.4
22:45 1018 30.06 847 25.01 2.1 35.7 52 -6.8 19.7
22:50 1018 30.06 847 25.01 1.9 35.4 52 -6.8 19.7
22:55 1018 30.06 848 25.04 1.7 35.1 53 -6.7 19.9
23:00 1019 30.09 848 25.04 1.6 34.8 54 -6.7 20
23:05 1019 30.09 848 25.04 1.5 34.6 55 -6.6 20.1
23:10 1019 30.09 848 25.04 1.4 34.6 55 -6.6 20.1
23:15 1019 30.09 848 25.04 1.5 34.7 52 -7.2 19
23:20 1019 30.09 848 25.04 1.7 35.1 51 -7.3 18.9
23:25 1019 30.09 848 25.04 1.8 35.3 49 -7.7 18.2
23:30 1019 30.09 848 25.04 2 35.6 48 -7.9 17.8
23:35 1019 30.09 848 25.04 2.2 35.9 44 -9 15.8
23:40 1019 30.09 848 25.04 2.5 36.5 43 -8.9 15.9
23:45 1019 30.09 849 25.07 2.5 36.4 43 -8.8 16.2
23:50 1019 30.09 849 25.07 2.3 36.2 44 -8.8 16.2
23:55 1020 30.12 849 25.07 2.3 36.1 44 -8.7 16.3
24:00 1020 30.12 849 25.07 2.2 35.9 45 -8.6 16.5